createdAt,value
2019-03-15T00:00:02.481Z,0
2019-03-15T00:00:43.078Z,0
2019-03-15T00:01:23.852Z,0
2019-03-15T00:02:04.452Z,0
2019-03-15T00:02:45.043Z,0
2019-03-15T00:03:25.680Z,0
2019-03-15T00:04:06.281Z,0
2019-03-15T00:04:46.877Z,0
2019-03-15T00:05:27.495Z,0
2019-03-15T00:06:08.079Z,0
2019-03-15T00:06:48.681Z,0
2019-03-15T00:07:29.284Z,4
2019-03-15T00:08:09.907Z,4
2019-03-15T00:08:50.536Z,4
2019-03-15T00:09:31.119Z,4
2019-03-15T00:10:11.752Z,4
2019-03-15T00:10:52.357Z,0
2019-03-15T00:11:32.971Z,4
2019-03-15T00:12:13.558Z,4
2019-03-15T00:12:54.158Z,4
2019-03-15T00:13:34.761Z,4
2019-03-15T00:14:15.358Z,4
2019-03-15T00:14:56.203Z,4
2019-03-15T00:15:36.800Z,4
2019-03-15T00:16:17.432Z,4
2019-03-15T00:16:58.056Z,4
2019-03-15T00:17:38.688Z,4
2019-03-15T00:18:19.332Z,4
2019-03-15T00:18:59.916Z,4
2019-03-15T00:19:40.501Z,4
2019-03-15T00:20:21.086Z,4
2019-03-15T00:21:01.687Z,4
2019-03-15T00:21:42.282Z,4
2019-03-15T00:22:22.872Z,4
2019-03-15T00:23:03.479Z,4
2019-03-15T00:23:44.078Z,4
2019-03-15T00:24:24.745Z,4
2019-03-15T00:25:05.348Z,4
2019-03-15T00:25:45.940Z,4
2019-03-15T00:26:26.659Z,4
2019-03-15T00:27:07.446Z,4
2019-03-15T00:27:48.086Z,4
2019-03-15T00:28:28.718Z,4
2019-03-15T00:29:09.316Z,4
2019-03-15T00:29:49.920Z,4
2019-03-15T00:30:30.589Z,0
2019-03-15T00:31:11.409Z,0
2019-03-15T00:31:52.199Z,0
2019-03-15T00:32:32.824Z,4
2019-03-15T00:33:13.422Z,4
2019-03-15T00:33:54.046Z,4
2019-03-15T00:34:34.720Z,4
2019-03-15T00:35:15.366Z,4
2019-03-15T00:35:56.015Z,4
2019-03-15T00:36:36.570Z,4
2019-03-15T00:37:17.160Z,4
2019-03-15T00:37:57.794Z,4
2019-03-15T00:38:38.395Z,4
2019-03-15T00:39:18.986Z,4
2019-03-15T00:39:59.570Z,4
2019-03-15T00:40:40.195Z,4
2019-03-15T00:41:20.782Z,4
2019-03-15T00:42:01.377Z,4
2019-03-15T00:42:41.960Z,4
2019-03-15T00:43:22.557Z,4
2019-03-15T00:44:03.228Z,4
2019-03-15T00:44:43.786Z,4
2019-03-15T00:45:24.372Z,4
2019-03-15T00:46:04.994Z,4
2019-03-15T00:46:45.582Z,4
2019-03-15T00:47:26.168Z,4
2019-03-15T00:48:06.762Z,4
2019-03-15T00:48:47.352Z,4
2019-03-15T00:49:27.940Z,4
2019-03-15T00:50:08.540Z,4
2019-03-15T00:50:49.132Z,4
2019-03-15T00:51:29.832Z,4
2019-03-15T00:52:10.478Z,4
2019-03-15T00:52:51.106Z,4
2019-03-15T00:53:31.702Z,4
2019-03-15T00:54:12.304Z,4
2019-03-15T00:54:53.009Z,4
2019-03-15T00:55:33.491Z,4
2019-03-15T00:56:14.098Z,4
2019-03-15T00:56:54.738Z,4
2019-03-15T00:57:35.335Z,4
2019-03-15T00:58:15.932Z,4
2019-03-15T00:58:56.558Z,4
2019-03-15T00:59:37.168Z,4
2019-03-15T01:00:17.782Z,0
2019-03-15T01:00:58.392Z,4
2019-03-15T01:01:39.000Z,4
2019-03-15T01:02:19.594Z,4
2019-03-15T01:03:00.192Z,4
2019-03-15T01:03:40.786Z,4
2019-03-15T01:04:21.396Z,4
2019-03-15T01:05:01.997Z,4
2019-03-15T01:05:42.594Z,4
2019-03-15T01:06:23.240Z,4
2019-03-15T01:07:03.875Z,4
2019-03-15T01:07:44.542Z,4
2019-03-15T01:08:25.126Z,4
2019-03-15T01:09:05.740Z,4
2019-03-15T01:09:46.388Z,4
2019-03-15T01:10:27.007Z,4
2019-03-15T01:11:07.646Z,4
2019-03-15T01:11:48.256Z,4
2019-03-15T01:12:28.898Z,4
2019-03-15T01:13:09.506Z,4
2019-03-15T01:13:50.221Z,4
2019-03-15T01:14:30.784Z,4
2019-03-15T01:15:11.401Z,4
2019-03-15T01:15:52.037Z,4
2019-03-15T01:16:32.620Z,4
2019-03-15T01:17:13.242Z,4
2019-03-15T01:17:53.850Z,4
2019-03-15T01:18:34.524Z,4
2019-03-15T01:19:15.103Z,4
2019-03-15T01:19:55.718Z,4
2019-03-15T01:20:36.315Z,4
2019-03-15T01:21:16.907Z,4
2019-03-15T01:21:57.492Z,4
2019-03-15T01:22:38.096Z,4
2019-03-15T01:23:18.688Z,4
2019-03-15T01:23:59.290Z,4
2019-03-15T01:24:39.884Z,4
2019-03-15T01:25:20.496Z,4
2019-03-15T01:26:01.082Z,4
2019-03-15T01:26:41.670Z,4
2019-03-15T01:27:22.260Z,4
2019-03-15T01:28:02.900Z,4
2019-03-15T01:28:43.564Z,4
2019-03-15T01:29:24.198Z,4
2019-03-15T01:30:05.071Z,4
2019-03-15T01:30:45.450Z,4
2019-03-15T01:31:26.116Z,4
2019-03-15T01:32:06.740Z,4
2019-03-15T01:32:47.387Z,4
2019-03-15T01:33:28.032Z,4
2019-03-15T01:34:08.676Z,4
2019-03-15T01:34:49.284Z,4
2019-03-15T01:35:33.032Z,4
2019-03-15T01:36:10.499Z,4
2019-03-15T01:36:51.100Z,4
2019-03-15T01:37:31.698Z,4
2019-03-15T01:38:12.300Z,4
2019-03-15T01:38:52.901Z,4
2019-03-15T01:39:33.492Z,4
2019-03-15T01:40:14.137Z,4
2019-03-15T01:40:54.756Z,4
2019-03-15T01:41:35.376Z,4
2019-03-15T01:42:15.995Z,4
2019-03-15T01:42:56.602Z,4
2019-03-15T01:43:37.202Z,4
2019-03-15T01:44:17.788Z,4
2019-03-15T01:44:58.372Z,4
2019-03-15T01:45:38.994Z,4
2019-03-15T01:46:19.606Z,4
2019-03-15T01:47:00.260Z,4
2019-03-15T01:47:40.856Z,4
2019-03-15T01:48:21.458Z,4
2019-03-15T01:49:02.118Z,4
2019-03-15T01:49:44.485Z,4
2019-03-15T01:50:24.402Z,4
2019-03-15T01:51:03.982Z,4
2019-03-15T01:51:44.588Z,4
2019-03-15T01:52:25.197Z,4
2019-03-15T01:53:05.816Z,4
2019-03-15T01:53:46.472Z,4
2019-03-15T01:54:27.064Z,4
2019-03-15T01:55:07.651Z,4
2019-03-15T01:55:48.269Z,4
2019-03-15T01:56:28.960Z,4
2019-03-15T01:57:09.603Z,4
2019-03-15T01:57:50.206Z,4
2019-03-15T01:58:30.807Z,4
2019-03-15T01:59:11.440Z,4
2019-03-15T01:59:52.054Z,4
2019-03-15T02:00:32.678Z,4
2019-03-15T02:01:13.283Z,4
2019-03-15T02:01:53.877Z,4
2019-03-15T02:02:34.596Z,4
2019-03-15T02:03:15.236Z,4
2019-03-15T02:03:55.868Z,4
2019-03-15T02:04:36.466Z,4
2019-03-15T02:05:17.065Z,4
2019-03-15T02:05:57.650Z,4
2019-03-15T02:06:38.296Z,4
2019-03-15T02:07:18.870Z,4
2019-03-15T02:08:00.624Z,4
2019-03-15T02:08:40.168Z,4
2019-03-15T02:09:20.799Z,4
2019-03-15T02:10:01.602Z,4
2019-03-15T02:10:42.218Z,4
2019-03-15T02:11:22.824Z,4
2019-03-15T02:12:03.419Z,4
2019-03-15T02:12:44.046Z,4
2019-03-15T02:13:24.598Z,4
2019-03-15T02:14:05.246Z,4
2019-03-15T02:14:45.924Z,4
2019-03-15T02:15:26.552Z,4
2019-03-15T02:16:07.158Z,4
2019-03-15T02:16:47.808Z,4
2019-03-15T02:17:28.536Z,4
2019-03-15T02:18:09.136Z,4
2019-03-15T02:18:49.750Z,4
2019-03-15T02:19:30.350Z,4
2019-03-15T02:20:10.950Z,4
2019-03-15T02:20:51.560Z,4
2019-03-15T02:21:32.208Z,4
2019-03-15T02:22:12.842Z,4
2019-03-15T02:22:53.452Z,4
2019-03-15T02:23:34.104Z,0
2019-03-15T02:24:14.794Z,4
2019-03-15T02:24:55.458Z,4
2019-03-15T02:25:36.072Z,4
2019-03-15T02:26:16.712Z,4
2019-03-15T02:26:57.335Z,4
2019-03-15T02:27:37.933Z,4
2019-03-15T02:28:18.598Z,4
2019-03-15T02:28:59.202Z,4
2019-03-15T02:29:39.789Z,4
2019-03-15T02:30:20.393Z,4
2019-03-15T02:31:01.060Z,4
2019-03-15T02:31:41.736Z,4
2019-03-15T02:32:22.373Z,4
2019-03-15T02:33:02.970Z,4
2019-03-15T02:33:43.597Z,4
2019-03-15T02:34:24.194Z,4
2019-03-15T02:35:04.845Z,4
2019-03-15T02:35:47.037Z,4
2019-03-15T02:36:26.048Z,4
2019-03-15T02:37:07.011Z,4
2019-03-15T02:37:47.302Z,4
2019-03-15T02:38:27.896Z,4
2019-03-15T02:39:08.496Z,4
2019-03-15T02:39:49.094Z,4
2019-03-15T02:40:29.692Z,4
2019-03-15T02:41:10.311Z,4
2019-03-15T02:41:50.880Z,4
2019-03-15T02:42:31.463Z,4
2019-03-15T02:43:12.062Z,4
2019-03-15T02:43:52.662Z,4
2019-03-15T02:44:33.260Z,4
2019-03-15T02:45:13.866Z,4
2019-03-15T02:45:54.464Z,4
2019-03-15T02:46:35.173Z,4
2019-03-15T02:47:15.767Z,4
2019-03-15T02:47:56.363Z,4
2019-03-15T02:48:36.946Z,4
2019-03-15T02:49:17.530Z,4
2019-03-15T02:49:58.140Z,4
2019-03-15T02:50:38.751Z,4
2019-03-15T02:51:19.348Z,4
2019-03-15T02:51:59.944Z,4
2019-03-15T02:52:40.774Z,4
2019-03-15T02:53:21.184Z,4
2019-03-15T02:54:01.810Z,4
2019-03-15T02:54:42.436Z,4
2019-03-15T02:55:23.049Z,4
2019-03-15T02:56:03.640Z,4
2019-03-15T02:56:44.228Z,4
2019-03-15T02:57:24.818Z,4
2019-03-15T02:58:05.444Z,4
2019-03-15T02:58:46.231Z,4
2019-03-15T02:59:26.654Z,4
2019-03-15T03:00:07.246Z,4
2019-03-15T03:00:47.840Z,4
2019-03-15T03:01:28.436Z,4
2019-03-15T03:02:09.028Z,4
2019-03-15T03:02:49.624Z,4
2019-03-15T03:03:30.227Z,4
2019-03-15T03:04:10.817Z,4
2019-03-15T03:04:51.421Z,4
2019-03-15T03:05:32.026Z,4
2019-03-15T03:06:12.624Z,4
2019-03-15T03:06:53.222Z,4
2019-03-15T03:07:33.831Z,4
2019-03-15T03:08:14.620Z,4
2019-03-15T03:08:55.024Z,4
2019-03-15T03:09:35.621Z,4
2019-03-15T03:10:16.229Z,4
2019-03-15T03:10:56.821Z,4
2019-03-15T03:11:37.436Z,4
2019-03-15T03:12:18.041Z,4
2019-03-15T03:12:58.633Z,4
2019-03-15T03:13:39.227Z,4
2019-03-15T03:14:19.845Z,4
2019-03-15T03:15:00.427Z,4
2019-03-15T03:15:41.057Z,4
2019-03-15T03:16:21.638Z,4
2019-03-15T03:17:02.263Z,4
2019-03-15T03:17:42.873Z,4
2019-03-15T03:18:23.462Z,4
2019-03-15T03:19:04.060Z,4
2019-03-15T03:19:44.657Z,4
2019-03-15T03:20:25.260Z,4
2019-03-15T03:21:05.858Z,4
2019-03-15T03:21:46.458Z,0
2019-03-15T03:22:27.059Z,4
2019-03-15T03:23:07.660Z,4
2019-03-15T03:23:48.283Z,4
2019-03-15T03:24:28.877Z,4
2019-03-15T03:25:09.465Z,4
2019-03-15T03:25:50.059Z,4
2019-03-15T03:26:30.647Z,4
2019-03-15T03:27:11.226Z,4
2019-03-15T03:27:51.839Z,4
2019-03-15T03:28:32.445Z,4
2019-03-15T03:29:13.057Z,4
2019-03-15T03:29:53.642Z,4
2019-03-15T03:30:34.241Z,4
2019-03-15T03:31:15.798Z,4
2019-03-15T03:31:55.553Z,4
2019-03-15T03:32:36.150Z,4
2019-03-15T03:33:16.750Z,4
2019-03-15T03:33:57.344Z,4
2019-03-15T03:34:40.320Z,4
2019-03-15T03:35:18.543Z,4
2019-03-15T03:35:59.153Z,4
2019-03-15T03:36:39.727Z,4
2019-03-15T03:37:20.318Z,4
2019-03-15T03:38:00.932Z,4
2019-03-15T03:38:41.529Z,4
2019-03-15T03:39:22.123Z,4
2019-03-15T03:40:02.803Z,4
2019-03-15T03:40:43.329Z,4
2019-03-15T03:41:23.913Z,4
2019-03-15T03:42:04.522Z,4
2019-03-15T03:42:45.281Z,4
2019-03-15T03:43:25.734Z,4
2019-03-15T03:44:06.331Z,4
2019-03-15T03:44:46.933Z,4
2019-03-15T03:45:27.519Z,4
2019-03-15T03:46:08.107Z,4
2019-03-15T03:46:48.707Z,4
2019-03-15T03:47:32.402Z,4
2019-03-15T03:48:09.896Z,4
2019-03-15T03:48:50.487Z,4
2019-03-15T03:49:31.084Z,4
2019-03-15T03:50:11.709Z,4
2019-03-15T03:50:52.299Z,4
2019-03-15T03:51:32.891Z,4
2019-03-15T03:52:15.306Z,4
2019-03-15T03:52:55.909Z,4
2019-03-15T03:53:36.497Z,4
2019-03-15T03:54:17.115Z,4
2019-03-15T03:54:57.839Z,4
2019-03-15T03:55:38.297Z,0
2019-03-15T03:56:19.029Z,4
2019-03-15T03:56:59.781Z,4
2019-03-15T03:57:40.391Z,4
2019-03-15T03:58:20.981Z,4
2019-03-15T03:59:01.580Z,4
2019-03-15T03:59:42.161Z,4
2019-03-15T04:00:22.783Z,4
2019-03-15T04:01:03.391Z,4
2019-03-15T04:01:43.990Z,4
2019-03-15T04:02:24.574Z,0
2019-03-15T04:03:05.182Z,4
2019-03-15T04:03:45.775Z,0
2019-03-15T04:04:26.386Z,4
2019-03-15T04:05:06.975Z,4
2019-03-15T04:05:47.574Z,0
2019-03-15T04:06:28.197Z,0
2019-03-15T04:07:08.835Z,4
2019-03-15T04:07:51.196Z,4
2019-03-15T04:08:31.802Z,4
2019-03-15T04:09:12.368Z,0
2019-03-15T04:09:52.959Z,4
2019-03-15T04:10:33.545Z,4
2019-03-15T04:11:14.257Z,4
2019-03-15T04:11:55.957Z,4
2019-03-15T04:12:35.507Z,4
2019-03-15T04:13:16.098Z,4
2019-03-15T04:13:56.702Z,4
2019-03-15T04:14:37.303Z,4
2019-03-15T04:15:17.915Z,4
2019-03-15T04:15:58.495Z,4
2019-03-15T04:16:39.157Z,0
2019-03-15T04:17:19.776Z,4
2019-03-15T04:18:00.381Z,4
2019-03-15T04:18:40.989Z,4
2019-03-15T04:19:21.583Z,4
2019-03-15T04:20:02.171Z,4
2019-03-15T04:20:42.769Z,4
2019-03-15T04:21:23.362Z,0
2019-03-15T04:22:03.960Z,4
2019-03-15T04:22:44.551Z,4
2019-03-15T04:23:25.146Z,4
2019-03-15T04:24:05.737Z,4
2019-03-15T04:24:46.330Z,4
2019-03-15T04:25:27.183Z,4
2019-03-15T04:26:07.543Z,4
2019-03-15T04:26:48.149Z,4
2019-03-15T04:27:28.740Z,0
2019-03-15T04:28:09.357Z,0
2019-03-15T04:28:49.948Z,4
2019-03-15T04:29:30.551Z,4
2019-03-15T04:30:11.137Z,4
2019-03-15T04:30:51.807Z,4
2019-03-15T04:31:32.411Z,4
2019-03-15T04:32:13.026Z,0
2019-03-15T04:32:55.623Z,0
2019-03-15T04:33:36.274Z,0
2019-03-15T04:34:16.824Z,4
2019-03-15T04:34:57.422Z,0
2019-03-15T04:35:38.011Z,0
2019-03-15T04:36:18.624Z,0
2019-03-15T04:36:59.241Z,0
2019-03-15T04:37:39.827Z,0
2019-03-15T04:38:20.458Z,0
2019-03-15T04:39:01.046Z,0
2019-03-15T04:39:41.642Z,0
2019-03-15T04:40:22.262Z,0
2019-03-15T04:41:02.838Z,0
2019-03-15T04:41:43.460Z,0
2019-03-15T04:42:24.190Z,0
2019-03-15T04:43:04.794Z,0
2019-03-15T04:43:45.384Z,0
2019-03-15T04:44:25.986Z,0
2019-03-15T04:45:06.586Z,0
2019-03-15T04:45:47.212Z,0
2019-03-15T04:46:27.809Z,0
2019-03-15T04:47:08.419Z,0
2019-03-15T04:47:49.086Z,0
2019-03-15T04:48:29.710Z,0
2019-03-15T04:49:10.304Z,0
2019-03-15T04:49:50.906Z,0
2019-03-15T04:50:31.526Z,0
2019-03-15T04:51:12.143Z,0
2019-03-15T04:51:52.720Z,0
2019-03-15T04:52:33.316Z,0
2019-03-15T04:53:13.914Z,0
2019-03-15T04:53:54.595Z,0
2019-03-15T04:54:35.180Z,0
2019-03-15T04:55:15.824Z,0
2019-03-15T04:55:56.377Z,0
2019-03-15T04:56:37.037Z,0
2019-03-15T04:57:17.637Z,0
2019-03-15T04:57:58.239Z,0
2019-03-15T04:58:38.852Z,0
2019-03-15T04:59:19.476Z,0
2019-03-15T05:00:00.116Z,0
2019-03-15T05:00:40.674Z,0
2019-03-15T05:01:21.292Z,0
2019-03-15T05:02:03.582Z,0
2019-03-15T05:02:44.194Z,0
2019-03-15T05:03:24.816Z,0
2019-03-15T05:04:05.466Z,0
2019-03-15T05:04:46.060Z,0
2019-03-15T05:05:26.644Z,0
2019-03-15T05:06:07.252Z,0
2019-03-15T05:06:47.920Z,0
2019-03-15T05:07:28.502Z,0
2019-03-15T05:08:09.146Z,0
2019-03-15T05:08:49.750Z,0
2019-03-15T05:09:30.332Z,0
2019-03-15T05:10:10.966Z,0
2019-03-15T05:10:51.564Z,0
2019-03-15T05:11:32.184Z,0
2019-03-15T05:12:12.770Z,0
2019-03-15T05:12:53.386Z,0
2019-03-15T05:13:33.978Z,0
2019-03-15T05:14:14.741Z,0
2019-03-15T05:14:55.319Z,0
2019-03-15T05:15:35.916Z,0
2019-03-15T05:16:16.515Z,0
2019-03-15T05:16:57.102Z,0
2019-03-15T05:17:37.692Z,0
2019-03-15T05:18:18.296Z,0
2019-03-15T05:18:58.966Z,0
2019-03-15T05:19:39.504Z,0
2019-03-15T05:20:21.237Z,0
2019-03-15T05:21:00.712Z,0
2019-03-15T05:21:41.326Z,0
2019-03-15T05:22:22.014Z,0
2019-03-15T05:23:02.510Z,0
2019-03-15T05:23:43.116Z,0
2019-03-15T05:24:23.703Z,0
2019-03-15T05:25:04.306Z,0
2019-03-15T05:25:44.898Z,0
2019-03-15T05:26:25.562Z,0
2019-03-15T05:27:06.180Z,0
2019-03-15T05:27:46.775Z,0
2019-03-15T05:28:27.409Z,0
2019-03-15T05:29:08.004Z,0
2019-03-15T05:29:48.654Z,0
2019-03-15T05:30:29.288Z,0
2019-03-15T05:31:09.892Z,0
2019-03-15T05:31:50.538Z,0
2019-03-15T05:32:31.228Z,0
2019-03-15T05:33:11.754Z,0
2019-03-15T05:33:52.358Z,0
2019-03-15T05:34:32.943Z,0
2019-03-15T05:35:13.548Z,0
2019-03-15T05:35:54.156Z,0
2019-03-15T05:36:34.762Z,0
2019-03-15T05:37:15.392Z,0
2019-03-15T05:37:56.027Z,0
2019-03-15T05:38:36.611Z,0
2019-03-15T05:39:17.204Z,0
2019-03-15T05:39:57.847Z,0
2019-03-15T05:40:38.448Z,0
2019-03-15T05:41:19.062Z,0
2019-03-15T05:41:59.666Z,0
2019-03-15T05:42:40.257Z,0
2019-03-15T05:43:20.851Z,0
2019-03-15T05:44:01.454Z,0
2019-03-15T05:44:42.050Z,0
2019-03-15T05:45:22.646Z,0
2019-03-15T05:46:03.261Z,0
2019-03-15T05:46:43.846Z,0
2019-03-15T05:47:24.433Z,0
2019-03-15T05:48:05.026Z,0
2019-03-15T05:48:45.634Z,0
2019-03-15T05:49:26.226Z,0
2019-03-15T05:50:06.844Z,0
2019-03-15T05:50:47.447Z,4
2019-03-15T05:51:28.034Z,4
2019-03-15T05:52:08.634Z,0
2019-03-15T05:52:49.246Z,0
2019-03-15T05:53:29.856Z,4
2019-03-15T05:54:10.450Z,4
2019-03-15T05:54:51.068Z,4
2019-03-15T05:55:31.682Z,4
2019-03-15T05:56:12.263Z,4
2019-03-15T05:56:52.844Z,4
2019-03-15T05:57:33.460Z,8
2019-03-15T05:58:14.052Z,4
2019-03-15T05:58:54.646Z,8
2019-03-15T05:59:35.239Z,8
2019-03-15T06:00:15.844Z,8
2019-03-15T06:00:56.472Z,8
2019-03-15T06:01:37.082Z,8
2019-03-15T06:02:17.700Z,12
2019-03-15T06:02:58.310Z,12
2019-03-15T06:03:48.179Z,12
2019-03-15T06:04:19.602Z,16
2019-03-15T06:05:00.406Z,16
2019-03-15T06:05:40.784Z,20
2019-03-15T06:06:21.396Z,20
2019-03-15T06:07:01.996Z,20
2019-03-15T06:07:42.628Z,24
2019-03-15T06:08:23.228Z,24
2019-03-15T06:09:03.813Z,28
2019-03-15T06:09:44.394Z,28
2019-03-15T06:10:25.014Z,32
2019-03-15T06:11:05.648Z,36
2019-03-15T06:11:46.290Z,36
2019-03-15T06:12:26.899Z,40
2019-03-15T06:13:07.484Z,44
2019-03-15T06:13:48.120Z,48
2019-03-15T06:14:28.743Z,48
2019-03-15T06:15:09.466Z,52
2019-03-15T06:15:50.084Z,60
2019-03-15T06:16:30.722Z,64
2019-03-15T06:17:11.364Z,64
2019-03-15T06:17:51.978Z,68
2019-03-15T06:18:32.658Z,72
2019-03-15T06:19:13.218Z,76
2019-03-15T06:19:53.830Z,80
2019-03-15T06:20:34.424Z,84
2019-03-15T06:21:15.024Z,88
2019-03-15T06:21:55.630Z,92
2019-03-15T06:22:36.293Z,96
2019-03-15T06:23:17.120Z,104
2019-03-15T06:23:57.510Z,108
2019-03-15T06:24:38.112Z,112
2019-03-15T06:25:18.775Z,116
2019-03-15T06:25:59.350Z,120
2019-03-15T06:26:39.944Z,124
2019-03-15T06:27:20.540Z,128
2019-03-15T06:28:01.144Z,136
2019-03-15T06:28:41.790Z,144
2019-03-15T06:29:22.388Z,144
2019-03-15T06:30:02.987Z,152
2019-03-15T06:30:43.634Z,156
2019-03-15T06:31:24.306Z,160
2019-03-15T06:32:04.907Z,168
2019-03-15T06:32:45.502Z,172
2019-03-15T06:33:28.525Z,180
2019-03-15T06:34:06.706Z,184
2019-03-15T06:34:47.312Z,188
2019-03-15T06:35:27.930Z,196
2019-03-15T06:36:08.516Z,196
2019-03-15T06:36:49.122Z,200
2019-03-15T06:37:29.734Z,204
2019-03-15T06:38:10.350Z,208
2019-03-15T06:38:50.981Z,216
2019-03-15T06:39:31.588Z,220
2019-03-15T06:40:13.715Z,228
2019-03-15T06:40:52.820Z,232
2019-03-15T06:41:33.426Z,240
2019-03-15T06:42:14.060Z,244
2019-03-15T06:42:54.658Z,248
2019-03-15T06:43:35.308Z,256
2019-03-15T06:44:15.949Z,260
2019-03-15T06:44:58.077Z,268
2019-03-15T06:45:37.196Z,272
2019-03-15T06:46:17.842Z,276
2019-03-15T06:46:58.484Z,280
2019-03-15T06:47:39.100Z,288
2019-03-15T06:48:19.740Z,296
2019-03-15T06:49:00.342Z,304
2019-03-15T06:49:40.952Z,308
2019-03-15T06:50:21.558Z,308
2019-03-15T06:51:02.164Z,316
2019-03-15T06:51:42.766Z,320
2019-03-15T06:52:23.466Z,324
2019-03-15T06:53:06.894Z,332
2019-03-15T06:53:48.003Z,336
2019-03-15T06:54:28.168Z,340
2019-03-15T06:55:08.833Z,344
2019-03-15T06:55:49.464Z,352
2019-03-15T06:56:30.090Z,352
2019-03-15T06:57:10.743Z,360
2019-03-15T06:57:51.428Z,364
2019-03-15T06:58:32.068Z,368
2019-03-15T06:59:12.701Z,372
2019-03-15T06:59:53.385Z,380
2019-03-15T07:00:33.993Z,384
2019-03-15T07:01:14.589Z,388
2019-03-15T07:01:55.385Z,392
2019-03-15T07:02:35.969Z,400
2019-03-15T07:03:16.588Z,424
2019-03-15T07:03:57.170Z,476
2019-03-15T07:04:37.792Z,624
2019-03-15T07:05:18.420Z,932
2019-03-15T07:05:59.008Z,1432
2019-03-15T07:06:39.607Z,5560
2019-03-15T07:07:20.206Z,13008
2019-03-15T07:08:00.806Z,21248
2019-03-15T07:08:41.422Z,28896
2019-03-15T07:09:22.056Z,33280
2019-03-15T07:10:02.780Z,34560
2019-03-15T07:10:44.244Z,36672
2019-03-15T07:11:23.866Z,37792
2019-03-15T07:12:09.072Z,38752
2019-03-15T07:12:45.073Z,39648
2019-03-15T07:13:25.664Z,36576
2019-03-15T07:14:06.275Z,27360
2019-03-15T07:14:46.892Z,15752
2019-03-15T07:15:27.480Z,5404
2019-03-15T07:16:08.100Z,664
2019-03-15T07:16:48.726Z,524
2019-03-15T07:17:29.342Z,488
2019-03-15T07:18:09.960Z,484
2019-03-15T07:18:50.566Z,488
2019-03-15T07:19:31.190Z,492
2019-03-15T07:20:11.788Z,496
2019-03-15T07:20:52.404Z,532
2019-03-15T07:21:33.004Z,632
2019-03-15T07:22:13.613Z,808
2019-03-15T07:22:54.194Z,956
2019-03-15T07:23:34.804Z,1052
2019-03-15T07:24:24.752Z,1124
2019-03-15T07:24:56.052Z,1204
2019-03-15T07:25:36.650Z,1272
2019-03-15T07:26:17.264Z,1336
2019-03-15T07:27:07.884Z,1368
2019-03-15T07:27:41.894Z,1368
2019-03-15T07:28:19.061Z,1356
2019-03-15T07:28:59.662Z,1332
2019-03-15T07:29:40.319Z,1292
2019-03-15T07:30:20.918Z,1232
2019-03-15T07:31:01.538Z,1196
2019-03-15T07:31:42.184Z,1200
2019-03-15T07:32:22.786Z,1212
2019-03-15T07:33:03.382Z,1220
2019-03-15T07:33:43.995Z,1212
2019-03-15T07:34:24.606Z,1196
2019-03-15T07:35:05.208Z,1180
2019-03-15T07:35:45.812Z,1160
2019-03-15T07:36:26.410Z,1148
2019-03-15T07:37:07.021Z,1128
2019-03-15T07:37:47.797Z,1116
2019-03-15T07:38:28.214Z,1100
2019-03-15T07:39:08.807Z,1088
2019-03-15T07:39:49.414Z,1072
2019-03-15T07:40:30.024Z,1060
2019-03-15T07:41:10.653Z,1048
2019-03-15T07:41:51.208Z,1036
2019-03-15T07:42:31.805Z,1020
2019-03-15T07:43:12.415Z,1008
2019-03-15T07:43:53.008Z,992
2019-03-15T07:44:33.644Z,980
2019-03-15T07:45:14.274Z,968
2019-03-15T07:45:54.889Z,952
2019-03-15T07:46:35.466Z,944
2019-03-15T07:47:16.069Z,928
2019-03-15T07:47:56.674Z,912
2019-03-15T07:48:37.279Z,904
2019-03-15T07:49:17.872Z,888
2019-03-15T07:49:58.466Z,880
2019-03-15T07:50:39.056Z,864
2019-03-15T07:51:19.652Z,852
2019-03-15T07:52:00.248Z,832
2019-03-15T07:52:40.848Z,820
2019-03-15T07:53:21.446Z,800
2019-03-15T07:54:02.049Z,784
2019-03-15T07:54:42.646Z,772
2019-03-15T07:55:23.254Z,760
2019-03-15T07:56:03.864Z,740
2019-03-15T07:56:44.456Z,728
2019-03-15T07:57:25.076Z,716
2019-03-15T07:58:05.663Z,704
2019-03-15T07:58:46.298Z,692
2019-03-15T07:59:27.963Z,684
2019-03-15T08:00:07.518Z,672
2019-03-15T08:00:48.110Z,660
2019-03-15T08:01:28.720Z,652
2019-03-15T08:02:09.339Z,644
2019-03-15T08:02:49.954Z,632
2019-03-15T08:03:30.538Z,628
2019-03-15T08:04:16.949Z,620
2019-03-15T08:04:51.733Z,616
2019-03-15T08:05:32.318Z,608
2019-03-15T08:06:12.974Z,604
2019-03-15T08:06:53.560Z,600
2019-03-15T08:07:36.473Z,596
2019-03-15T08:08:14.742Z,592
2019-03-15T08:08:55.352Z,592
2019-03-15T08:09:35.965Z,588
2019-03-15T08:10:16.562Z,588
2019-03-15T08:10:57.208Z,588
2019-03-15T08:11:37.796Z,588
2019-03-15T08:12:18.378Z,592
2019-03-15T08:12:58.984Z,588
2019-03-15T08:13:39.574Z,588
2019-03-15T08:14:20.180Z,588
2019-03-15T08:15:00.773Z,584
2019-03-15T08:15:41.389Z,584
2019-03-15T08:16:21.990Z,580
2019-03-15T08:17:02.578Z,576
2019-03-15T08:17:43.180Z,576
2019-03-15T08:18:23.778Z,572
2019-03-15T08:19:05.113Z,572
2019-03-15T08:19:44.969Z,572
2019-03-15T08:20:25.558Z,564
2019-03-15T08:21:06.153Z,564
2019-03-15T08:21:46.735Z,568
2019-03-15T08:22:27.348Z,556
2019-03-15T08:23:08.707Z,552
2019-03-15T08:23:48.517Z,552
2019-03-15T08:24:29.110Z,552
2019-03-15T08:25:09.722Z,552
2019-03-15T08:25:50.702Z,548
2019-03-15T08:26:31.021Z,548
2019-03-15T08:27:11.612Z,548
2019-03-15T08:27:52.210Z,540
2019-03-15T08:28:32.816Z,536
2019-03-15T08:29:13.410Z,532
2019-03-15T08:29:54.038Z,536
2019-03-15T08:30:34.642Z,524
2019-03-15T08:31:15.248Z,524
2019-03-15T08:31:55.874Z,524
2019-03-15T08:32:36.459Z,520
2019-03-15T08:33:17.062Z,520
2019-03-15T08:33:57.684Z,520
2019-03-15T08:34:38.264Z,520
2019-03-15T08:35:18.855Z,520
2019-03-15T08:35:59.458Z,520
2019-03-15T08:36:40.048Z,520
2019-03-15T08:37:20.644Z,524
2019-03-15T08:38:01.221Z,520
2019-03-15T08:38:47.054Z,520
2019-03-15T08:39:22.415Z,524
2019-03-15T08:40:03.005Z,520
2019-03-15T08:40:43.604Z,524
2019-03-15T08:41:24.214Z,524
2019-03-15T08:42:04.837Z,520
2019-03-15T08:42:45.442Z,524
2019-03-15T08:43:26.026Z,524
2019-03-15T08:44:06.625Z,524
2019-03-15T08:44:47.243Z,528
2019-03-15T08:45:27.851Z,528
2019-03-15T08:46:08.491Z,532
2019-03-15T08:46:49.058Z,532
2019-03-15T08:47:29.655Z,532
2019-03-15T08:48:10.266Z,544
2019-03-15T08:48:50.866Z,536
2019-03-15T08:49:31.484Z,536
2019-03-15T08:50:14.935Z,536
2019-03-15T08:50:52.704Z,540
2019-03-15T08:51:33.294Z,540
2019-03-15T08:52:13.904Z,544
2019-03-15T08:52:54.616Z,540
2019-03-15T08:53:35.084Z,544
2019-03-15T08:54:15.721Z,540
2019-03-15T08:55:04.868Z,544
2019-03-15T08:55:39.691Z,544
2019-03-15T08:56:17.508Z,544
2019-03-15T08:56:58.112Z,548
2019-03-15T08:57:38.708Z,548
2019-03-15T08:58:22.198Z,548
2019-03-15T08:59:01.602Z,548
2019-03-15T08:59:52.713Z,548
2019-03-15T09:00:22.890Z,552
2019-03-15T09:01:03.498Z,556
2019-03-15T09:01:44.100Z,560
2019-03-15T09:02:24.754Z,560
2019-03-15T09:03:05.366Z,556
2019-03-15T09:03:45.961Z,560
2019-03-15T09:04:26.585Z,564
2019-03-15T09:05:07.221Z,564
2019-03-15T09:05:47.822Z,564
2019-03-15T09:06:28.446Z,564
2019-03-15T09:07:09.092Z,608
2019-03-15T09:07:49.690Z,580
2019-03-15T09:08:30.366Z,576
2019-03-15T09:09:11.002Z,580
2019-03-15T09:09:51.597Z,580
2019-03-15T09:10:32.198Z,588
2019-03-15T09:11:12.802Z,592
2019-03-15T09:11:53.434Z,592
2019-03-15T09:12:34.032Z,592
2019-03-15T09:13:14.689Z,596
2019-03-15T09:13:55.284Z,604
2019-03-15T09:14:35.874Z,600
2019-03-15T09:15:16.495Z,604
2019-03-15T09:15:57.088Z,596
2019-03-15T09:16:37.691Z,612
2019-03-15T09:17:19.975Z,664
2019-03-15T09:17:58.886Z,620
2019-03-15T09:18:39.480Z,620
2019-03-15T09:19:20.073Z,620
2019-03-15T09:20:00.712Z,628
2019-03-15T09:20:41.308Z,632
2019-03-15T09:21:21.896Z,636
2019-03-15T09:22:02.486Z,644
2019-03-15T09:22:43.081Z,656
2019-03-15T09:23:23.685Z,656
2019-03-15T09:24:04.342Z,652
2019-03-15T09:24:44.930Z,652
2019-03-15T09:25:25.538Z,652
2019-03-15T09:26:06.132Z,648
2019-03-15T09:26:46.728Z,648
2019-03-15T09:27:27.346Z,652
2019-03-15T09:28:07.974Z,652
2019-03-15T09:28:48.564Z,652
2019-03-15T09:29:29.170Z,656
2019-03-15T09:30:22.461Z,652
2019-03-15T09:30:50.368Z,676
2019-03-15T09:31:42.468Z,676
2019-03-15T09:32:11.567Z,672
2019-03-15T09:32:52.162Z,668
2019-03-15T09:33:32.746Z,668
2019-03-15T09:34:13.383Z,664
2019-03-15T09:34:55.691Z,676
2019-03-15T09:35:34.542Z,676
2019-03-15T09:36:15.139Z,676
2019-03-15T09:36:55.729Z,680
2019-03-15T09:37:36.336Z,676
2019-03-15T09:38:16.937Z,676
2019-03-15T09:38:57.540Z,676
2019-03-15T09:39:38.133Z,676
2019-03-15T09:40:18.730Z,676
2019-03-15T09:40:59.357Z,680
2019-03-15T09:41:40.368Z,680
2019-03-15T09:42:20.578Z,680
2019-03-15T09:43:01.103Z,676
2019-03-15T09:43:44.941Z,692